sensor_id;sensor_type;location;lat;lon;timestamp;P1;durP1;ratioP1;P2;durP2;ratioP2
13485;SDS011;6815;59.336;17.998;2023-04-12T00:02:06;11.97;;;7.73;;
13485;SDS011;6815;59.336;17.998;2023-04-12T00:04:32;11.27;;;7.67;;
13485;SDS011;6815;59.336;17.998;2023-04-12T00:06:59;12.97;;;8.37;;
13485;SDS011;6815;59.336;17.998;2023-04-12T00:09:26;9.73;;;8.00;;
13485;SDS011;6815;59.336;17.998;2023-04-12T00:11:58;10.90;;;7.53;;
13485;SDS011;6815;59.336;17.998;2023-04-12T00:14:27;10.97;;;7.50;;
13485;SDS011;6815;59.336;17.998;2023-04-12T00:16:53;8.53;;;7.63;;
13485;SDS011;6815;59.336;17.998;2023-04-12T00:19:18;11.90;;;8.40;;
13485;SDS011;6815;59.336;17.998;2023-04-12T00:21:44;12.30;;;8.00;;
13485;SDS011;6815;59.336;17.998;2023-04-12T00:24:09;9.57;;;8.10;;
13485;SDS011;6815;59.336;17.998;2023-04-12T00:26:35;10.43;;;8.00;;
13485;SDS011;6815;59.336;17.998;2023-04-12T00:29:00;11.07;;;8.00;;
13485;SDS011;6815;59.336;17.998;2023-04-12T00:31:26;10.77;;;7.30;;
13485;SDS011;6815;59.336;17.998;2023-04-12T00:33:51;8.23;;;7.13;;
13485;SDS011;6815;59.336;17.998;2023-04-12T00:36:17;9.77;;;7.40;;
13485;SDS011;6815;59.336;17.998;2023-04-12T00:38:42;10.60;;;7.67;;
13485;SDS011;6815;59.336;17.998;2023-04-12T00:41:10;10.43;;;7.87;;
13485;SDS011;6815;59.336;17.998;2023-04-12T00:43:36;11.53;;;8.33;;
13485;SDS011;6815;59.336;17.998;2023-04-12T00:46:03;10.20;;;7.80;;
13485;SDS011;6815;59.336;17.998;2023-04-12T00:48:29;8.30;;;7.37;;
13485;SDS011;6815;59.336;17.998;2023-04-12T00:50:55;10.40;;;8.03;;
13485;SDS011;6815;59.336;17.998;2023-04-12T00:53:21;9.03;;;7.50;;
13485;SDS011;6815;59.336;17.998;2023-04-12T00:55:48;9.83;;;8.03;;
13485;SDS011;6815;59.336;17.998;2023-04-12T00:58:14;9.90;;;7.13;;
13485;SDS011;6815;59.336;17.998;2023-04-12T01:00:41;11.20;;;8.23;;
13485;SDS011;6815;59.336;17.998;2023-04-12T01:03:13;10.53;;;7.87;;
13485;SDS011;6815;59.336;17.998;2023-04-12T01:05:42;10.10;;;7.53;;
13485;SDS011;6815;59.336;17.998;2023-04-12T01:08:18;9.67;;;8.17;;
13485;SDS011;6815;59.336;17.998;2023-04-12T01:13:48;10.70;;;7.77;;
13485;SDS011;6815;59.336;17.998;2023-04-12T01:22:16;11.50;;;8.37;;
13485;SDS011;6815;59.336;17.998;2023-04-12T01:27:53;12.43;;;8.63;;
13485;SDS011;6815;59.336;17.998;2023-04-12T01:30:21;11.23;;;8.27;;
13485;SDS011;6815;59.336;17.998;2023-04-12T01:32:51;10.20;;;8.40;;
13485;SDS011;6815;59.336;17.998;2023-04-12T01:35:20;10.77;;;8.63;;
13485;SDS011;6815;59.336;17.998;2023-04-12T01:37:48;11.87;;;8.70;;
13485;SDS011;6815;59.336;17.998;2023-04-12T01:40:13;10.80;;;8.80;;
13485;SDS011;6815;59.336;17.998;2023-04-12T01:42:39;11.17;;;9.33;;
13485;SDS011;6815;59.336;17.998;2023-04-12T01:45:05;11.77;;;9.20;;
13485;SDS011;6815;59.336;17.998;2023-04-12T01:47:34;15.97;;;8.47;;
13485;SDS011;6815;59.336;17.998;2023-04-12T01:52:35;11.80;;;8.63;;
13485;SDS011;6815;59.336;17.998;2023-04-12T01:55:06;14.37;;;8.80;;
13485;SDS011;6815;59.336;17.998;2023-04-12T01:57:32;10.90;;;8.60;;
13485;SDS011;6815;59.336;17.998;2023-04-12T01:59:59;11.90;;;9.20;;
13485;SDS011;6815;59.336;17.998;2023-04-12T02:02:26;12.13;;;8.93;;
13485;SDS011;6815;59.336;17.998;2023-04-12T02:04:52;11.77;;;8.57;;
13485;SDS011;6815;59.336;17.998;2023-04-12T02:07:20;12.33;;;9.20;;
13485;SDS011;6815;59.336;17.998;2023-04-12T02:09:45;11.77;;;9.03;;
13485;SDS011;6815;59.336;17.998;2023-04-12T02:12:11;11.97;;;9.33;;
13485;SDS011;6815;59.336;17.998;2023-04-12T02:14:37;13.97;;;8.83;;
13485;SDS011;6815;59.336;17.998;2023-04-12T02:17:03;10.13;;;8.17;;
13485;SDS011;6815;59.336;17.998;2023-04-12T02:19:29;13.63;;;8.63;;
13485;SDS011;6815;59.336;17.998;2023-04-12T02:21:55;11.00;;;8.93;;
13485;SDS011;6815;59.336;17.998;2023-04-12T02:24:20;13.23;;;9.37;;
13485;SDS011;6815;59.336;17.998;2023-04-12T02:26:46;12.30;;;9.13;;
13485;SDS011;6815;59.336;17.998;2023-04-12T02:29:13;11.23;;;9.23;;
13485;SDS011;6815;59.336;17.998;2023-04-12T02:31:39;13.70;;;10.40;;
13485;SDS011;6815;59.336;17.998;2023-04-12T02:34:05;11.03;;;9.20;;
13485;SDS011;6815;59.336;17.998;2023-04-12T02:36:31;13.43;;;9.97;;
13485;SDS011;6815;59.336;17.998;2023-04-12T02:38:57;12.90;;;9.80;;
13485;SDS011;6815;59.336;17.998;2023-04-12T02:41:23;12.50;;;9.90;;
13485;SDS011;6815;59.336;17.998;2023-04-12T02:43:49;16.47;;;9.43;;
13485;SDS011;6815;59.336;17.998;2023-04-12T02:46:17;12.40;;;9.43;;
13485;SDS011;6815;59.336;17.998;2023-04-12T02:48:45;11.60;;;9.47;;
13485;SDS011;6815;59.336;17.998;2023-04-12T02:51:11;13.17;;;9.77;;
13485;SDS011;6815;59.336;17.998;2023-04-12T02:53:37;14.23;;;10.60;;
13485;SDS011;6815;59.336;17.998;2023-04-12T02:56:03;11.27;;;9.73;;
13485;SDS011;6815;59.336;17.998;2023-04-12T02:58:32;13.30;;;10.37;;
13485;SDS011;6815;59.336;17.998;2023-04-12T03:00:58;15.47;;;10.90;;
13485;SDS011;6815;59.336;17.998;2023-04-12T03:03:31;11.77;;;9.70;;
13485;SDS011;6815;59.336;17.998;2023-04-12T03:05:58;15.40;;;10.90;;
13485;SDS011;6815;59.336;17.998;2023-04-12T03:08:23;13.80;;;10.80;;
13485;SDS011;6815;59.336;17.998;2023-04-12T03:10:48;13.00;;;10.17;;
13485;SDS011;6815;59.336;17.998;2023-04-12T03:13:14;13.73;;;10.80;;
13485;SDS011;6815;59.336;17.998;2023-04-12T03:15:39;15.73;;;10.67;;
13485;SDS011;6815;59.336;17.998;2023-04-12T03:18:07;13.10;;;10.80;;
13485;SDS011;6815;59.336;17.998;2023-04-12T03:20:33;14.87;;;11.23;;
13485;SDS011;6815;59.336;17.998;2023-04-12T03:22:59;14.43;;;11.40;;
13485;SDS011;6815;59.336;17.998;2023-04-12T03:25:25;16.70;;;11.90;;
13485;SDS011;6815;59.336;17.998;2023-04-12T03:27:51;16.90;;;11.63;;
13485;SDS011;6815;59.336;17.998;2023-04-12T03:30:16;16.77;;;13.03;;
13485;SDS011;6815;59.336;17.998;2023-04-12T03:32:42;17.00;;;12.50;;
13485;SDS011;6815;59.336;17.998;2023-04-12T03:35:08;16.40;;;12.60;;
13485;SDS011;6815;59.336;17.998;2023-04-12T03:37:34;17.80;;;13.17;;
13485;SDS011;6815;59.336;17.998;2023-04-12T03:39:59;17.77;;;12.80;;
13485;SDS011;6815;59.336;17.998;2023-04-12T03:42:26;16.33;;;12.53;;
13485;SDS011;6815;59.336;17.998;2023-04-12T03:44:52;19.00;;;12.17;;
13485;SDS011;6815;59.336;17.998;2023-04-12T03:47:19;18.17;;;12.43;;
13485;SDS011;6815;59.336;17.998;2023-04-12T03:49:48;16.10;;;12.13;;
13485;SDS011;6815;59.336;17.998;2023-04-12T03:52:13;16.97;;;12.83;;
13485;SDS011;6815;59.336;17.998;2023-04-12T03:54:39;16.70;;;12.30;;
13485;SDS011;6815;59.336;17.998;2023-04-12T03:57:05;13.87;;;11.53;;
13485;SDS011;6815;59.336;17.998;2023-04-12T03:59:30;17.53;;;12.87;;
13485;SDS011;6815;59.336;17.998;2023-04-12T04:01:57;17.40;;;13.63;;
13485;SDS011;6815;59.336;17.998;2023-04-12T04:04:25;16.87;;;13.60;;
13485;SDS011;6815;59.336;17.998;2023-04-12T04:06:51;18.23;;;13.10;;
13485;SDS011;6815;59.336;17.998;2023-04-12T04:09:16;17.07;;;12.63;;
13485;SDS011;6815;59.336;17.998;2023-04-12T04:11:42;18.17;;;13.03;;
13485;SDS011;6815;59.336;17.998;2023-04-12T04:14:07;17.47;;;12.10;;
13485;SDS011;6815;59.336;17.998;2023-04-12T04:16:33;19.40;;;13.33;;
13485;SDS011;6815;59.336;17.998;2023-04-12T04:18:58;16.87;;;12.73;;
13485;SDS011;6815;59.336;17.998;2023-04-12T04:21:24;17.60;;;13.30;;
13485;SDS011;6815;59.336;17.998;2023-04-12T04:23:50;16.90;;;12.60;;
13485;SDS011;6815;59.336;17.998;2023-04-12T04:26:16;16.13;;;12.57;;
13485;SDS011;6815;59.336;17.998;2023-04-12T04:28:42;17.47;;;12.50;;
13485;SDS011;6815;59.336;17.998;2023-04-12T04:31:11;16.17;;;13.43;;
13485;SDS011;6815;59.336;17.998;2023-04-12T04:33:38;21.63;;;14.17;;
13485;SDS011;6815;59.336;17.998;2023-04-12T04:36:05;19.30;;;13.53;;
13485;SDS011;6815;59.336;17.998;2023-04-12T04:38:32;17.87;;;12.83;;
13485;SDS011;6815;59.336;17.998;2023-04-12T04:40:57;16.40;;;13.00;;
13485;SDS011;6815;59.336;17.998;2023-04-12T04:43:26;17.87;;;13.27;;
13485;SDS011;6815;59.336;17.998;2023-04-12T04:45:54;20.60;;;13.90;;
13485;SDS011;6815;59.336;17.998;2023-04-12T04:48:23;16.90;;;13.10;;
13485;SDS011;6815;59.336;17.998;2023-04-12T04:50:48;16.33;;;13.17;;
13485;SDS011;6815;59.336;17.998;2023-04-12T04:53:17;18.23;;;13.47;;
13485;SDS011;6815;59.336;17.998;2023-04-12T04:55:46;19.50;;;14.10;;
13485;SDS011;6815;59.336;17.998;2023-04-12T04:58:12;16.20;;;12.93;;
13485;SDS011;6815;59.336;17.998;2023-04-12T05:00:38;18.23;;;13.47;;
13485;SDS011;6815;59.336;17.998;2023-04-12T05:03:03;18.93;;;13.00;;
13485;SDS011;6815;59.336;17.998;2023-04-12T05:05:29;16.80;;;13.10;;
13485;SDS011;6815;59.336;17.998;2023-04-12T05:07:55;19.77;;;13.83;;
13485;SDS011;6815;59.336;17.998;2023-04-12T05:10:22;20.17;;;13.67;;
13485;SDS011;6815;59.336;17.998;2023-04-12T05:12:47;20.77;;;14.23;;
13485;SDS011;6815;59.336;17.998;2023-04-12T05:15:13;16.80;;;13.20;;
13485;SDS011;6815;59.336;17.998;2023-04-12T05:17:38;20.20;;;13.50;;
13485;SDS011;6815;59.336;17.998;2023-04-12T05:20:04;18.50;;;13.57;;
13485;SDS011;6815;59.336;17.998;2023-04-12T05:22:32;17.83;;;12.93;;
13485;SDS011;6815;59.336;17.998;2023-04-12T05:25:00;21.53;;;13.20;;
13485;SDS011;6815;59.336;17.998;2023-04-12T05:27:28;17.07;;;13.37;;
13485;SDS011;6815;59.336;17.998;2023-04-12T05:29:55;18.60;;;13.93;;
13485;SDS011;6815;59.336;17.998;2023-04-12T05:32:21;18.33;;;13.93;;
13485;SDS011;6815;59.336;17.998;2023-04-12T05:34:48;21.10;;;13.40;;
13485;SDS011;6815;59.336;17.998;2023-04-12T05:37:14;17.13;;;12.70;;
13485;SDS011;6815;59.336;17.998;2023-04-12T05:39:39;18.87;;;12.43;;
13485;SDS011;6815;59.336;17.998;2023-04-12T05:42:05;17.03;;;12.97;;
13485;SDS011;6815;59.336;17.998;2023-04-12T05:44:30;18.93;;;13.20;;
13485;SDS011;6815;59.336;17.998;2023-04-12T05:46:56;18.27;;;13.00;;
13485;SDS011;6815;59.336;17.998;2023-04-12T05:49:21;14.57;;;11.97;;
13485;SDS011;6815;59.336;17.998;2023-04-12T05:51:47;19.03;;;13.27;;
13485;SDS011;6815;59.336;17.998;2023-04-12T05:54:12;16.07;;;12.57;;
13485;SDS011;6815;59.336;17.998;2023-04-12T05:56:38;19.87;;;13.60;;
13485;SDS011;6815;59.336;17.998;2023-04-12T05:59:03;17.07;;;12.80;;
13485;SDS011;6815;59.336;17.998;2023-04-12T06:01:29;20.10;;;12.67;;
13485;SDS011;6815;59.336;17.998;2023-04-12T06:03:57;17.37;;;12.57;;
13485;SDS011;6815;59.336;17.998;2023-04-12T06:06:23;15.50;;;12.17;;
13485;SDS011;6815;59.336;17.998;2023-04-12T06:08:48;18.57;;;12.83;;
13485;SDS011;6815;59.336;17.998;2023-04-12T06:11:13;18.53;;;12.03;;
13485;SDS011;6815;59.336;17.998;2023-04-12T06:13:40;18.70;;;12.33;;
13485;SDS011;6815;59.336;17.998;2023-04-12T06:16:05;14.97;;;11.33;;
13485;SDS011;6815;59.336;17.998;2023-04-12T06:18:31;16.63;;;12.10;;
13485;SDS011;6815;59.336;17.998;2023-04-12T06:20:57;18.83;;;11.83;;
13485;SDS011;6815;59.336;17.998;2023-04-12T06:23:22;17.43;;;11.80;;
13485;SDS011;6815;59.336;17.998;2023-04-12T06:25:48;15.27;;;11.70;;
13485;SDS011;6815;59.336;17.998;2023-04-12T06:28:14;20.83;;;12.37;;
13485;SDS011;6815;59.336;17.998;2023-04-12T06:30:40;19.43;;;12.10;;
13485;SDS011;6815;59.336;17.998;2023-04-12T06:33:06;13.67;;;10.20;;
13485;SDS011;6815;59.336;17.998;2023-04-12T06:35:32;20.07;;;12.63;;
13485;SDS011;6815;59.336;17.998;2023-04-12T06:37:57;15.00;;;10.93;;
13485;SDS011;6815;59.336;17.998;2023-04-12T06:40:23;20.87;;;11.90;;
13485;SDS011;6815;59.336;17.998;2023-04-12T06:42:48;15.03;;;11.23;;
13485;SDS011;6815;59.336;17.998;2023-04-12T06:45:14;13.17;;;10.80;;
13485;SDS011;6815;59.336;17.998;2023-04-12T06:47:39;15.80;;;12.03;;
13485;SDS011;6815;59.336;17.998;2023-04-12T06:50:05;14.27;;;11.03;;
13485;SDS011;6815;59.336;17.998;2023-04-12T06:52:31;17.27;;;10.87;;
13485;SDS011;6815;59.336;17.998;2023-04-12T06:54:56;17.00;;;11.80;;
13485;SDS011;6815;59.336;17.998;2023-04-12T06:57:22;20.23;;;11.93;;
13485;SDS011;6815;59.336;17.998;2023-04-12T06:59:48;15.30;;;10.50;;
13485;SDS011;6815;59.336;17.998;2023-04-12T07:02:14;17.67;;;11.50;;
13485;SDS011;6815;59.336;17.998;2023-04-12T07:04:39;17.53;;;11.33;;
13485;SDS011;6815;59.336;17.998;2023-04-12T07:07:05;18.70;;;10.83;;
13485;SDS011;6815;59.336;17.998;2023-04-12T07:09:31;11.47;;;10.20;;
13485;SDS011;6815;59.336;17.998;2023-04-12T07:11:57;17.57;;;10.73;;
13485;SDS011;6815;59.336;17.998;2023-04-12T07:14:22;19.17;;;10.60;;
13485;SDS011;6815;59.336;17.998;2023-04-12T07:16:48;13.73;;;9.97;;
13485;SDS011;6815;59.336;17.998;2023-04-12T07:19:14;19.80;;;11.33;;
13485;SDS011;6815;59.336;17.998;2023-04-12T07:21:40;18.80;;;11.20;;
13485;SDS011;6815;59.336;17.998;2023-04-12T07:24:06;17.37;;;10.43;;
13485;SDS011;6815;59.336;17.998;2023-04-12T07:26:31;14.80;;;11.13;;
13485;SDS011;6815;59.336;17.998;2023-04-12T07:28:57;18.57;;;9.87;;
13485;SDS011;6815;59.336;17.998;2023-04-12T07:31:22;16.53;;;10.10;;
13485;SDS011;6815;59.336;17.998;2023-04-12T07:33:48;17.30;;;10.00;;
13485;SDS011;6815;59.336;17.998;2023-04-12T07:36:13;18.97;;;10.80;;
13485;SDS011;6815;59.336;17.998;2023-04-12T07:38:40;16.30;;;10.27;;
13485;SDS011;6815;59.336;17.998;2023-04-12T07:41:06;14.23;;;9.73;;
13485;SDS011;6815;59.336;17.998;2023-04-12T07:43:31;18.37;;;10.40;;
13485;SDS011;6815;59.336;17.998;2023-04-12T07:45:57;20.97;;;11.57;;
13485;SDS011;6815;59.336;17.998;2023-04-12T07:48:23;14.43;;;10.87;;
13485;SDS011;6815;59.336;17.998;2023-04-12T07:50:48;16.13;;;10.63;;
13485;SDS011;6815;59.336;17.998;2023-04-12T07:53:18;16.93;;;10.63;;
13485;SDS011;6815;59.336;17.998;2023-04-12T07:55:47;14.67;;;10.03;;
13485;SDS011;6815;59.336;17.998;2023-04-12T07:58:14;16.07;;;10.60;;
13485;SDS011;6815;59.336;17.998;2023-04-12T08:00:41;18.47;;;12.23;;
13485;SDS011;6815;59.336;17.998;2023-04-12T08:03:07;17.30;;;11.23;;
13485;SDS011;6815;59.336;17.998;2023-04-12T08:05:33;15.67;;;11.20;;
13485;SDS011;6815;59.336;17.998;2023-04-12T08:07:59;13.23;;;10.40;;
13485;SDS011;6815;59.336;17.998;2023-04-12T08:10:24;15.93;;;10.87;;
13485;SDS011;6815;59.336;17.998;2023-04-12T08:12:50;14.20;;;10.20;;
13485;SDS011;6815;59.336;17.998;2023-04-12T08:15:15;15.47;;;11.53;;
13485;SDS011;6815;59.336;17.998;2023-04-12T08:17:41;14.80;;;10.53;;
13485;SDS011;6815;59.336;17.998;2023-04-12T08:20:08;18.50;;;10.93;;
13485;SDS011;6815;59.336;17.998;2023-04-12T08:22:34;17.70;;;10.33;;
13485;SDS011;6815;59.336;17.998;2023-04-12T08:25:00;15.47;;;10.53;;
13485;SDS011;6815;59.336;17.998;2023-04-12T08:27:28;16.03;;;11.17;;
13485;SDS011;6815;59.336;17.998;2023-04-12T08:29:53;15.43;;;10.43;;
13485;SDS011;6815;59.336;17.998;2023-04-12T08:32:19;16.70;;;11.70;;
13485;SDS011;6815;59.336;17.998;2023-04-12T08:34:44;14.43;;;10.50;;
13485;SDS011;6815;59.336;17.998;2023-04-12T08:37:10;17.97;;;10.93;;
13485;SDS011;6815;59.336;17.998;2023-04-12T08:39:35;15.40;;;10.63;;
13485;SDS011;6815;59.336;17.998;2023-04-12T08:42:01;15.93;;;10.50;;
13485;SDS011;6815;59.336;17.998;2023-04-12T08:44:38;15.53;;;10.97;;
13485;SDS011;6815;59.336;17.998;2023-04-12T08:47:06;16.57;;;10.50;;
13485;SDS011;6815;59.336;17.998;2023-04-12T08:49:33;15.50;;;10.57;;
13485;SDS011;6815;59.336;17.998;2023-04-12T08:51:59;15.03;;;10.30;;
13485;SDS011;6815;59.336;17.998;2023-04-12T08:54:30;17.40;;;10.50;;
13485;SDS011;6815;59.336;17.998;2023-04-12T08:56:58;17.00;;;11.07;;
13485;SDS011;6815;59.336;17.998;2023-04-12T08:59:28;12.37;;;10.10;;
13485;SDS011;6815;59.336;17.998;2023-04-12T09:01:56;15.77;;;10.67;;
13485;SDS011;6815;59.336;17.998;2023-04-12T09:04:23;15.83;;;10.43;;
13485;SDS011;6815;59.336;17.998;2023-04-12T09:06:50;14.63;;;10.23;;
13485;SDS011;6815;59.336;17.998;2023-04-12T09:09:17;22.17;;;10.30;;
13485;SDS011;6815;59.336;17.998;2023-04-12T09:11:43;16.80;;;10.30;;
13485;SDS011;6815;59.336;17.998;2023-04-12T09:14:22;12.67;;;9.60;;
13485;SDS011;6815;59.336;17.998;2023-04-12T09:16:48;15.73;;;9.73;;
13485;SDS011;6815;59.336;17.998;2023-04-12T09:19:14;14.60;;;9.53;;
13485;SDS011;6815;59.336;17.998;2023-04-12T09:21:53;14.53;;;9.17;;
13485;SDS011;6815;59.336;17.998;2023-04-12T09:24:20;15.83;;;9.20;;
13485;SDS011;6815;59.336;17.998;2023-04-12T09:29:26;14.80;;;9.37;;
13485;SDS011;6815;59.336;17.998;2023-04-12T09:32:01;15.67;;;9.20;;
13485;SDS011;6815;59.336;17.998;2023-04-12T09:34:30;15.17;;;9.17;;
13485;SDS011;6815;59.336;17.998;2023-04-12T09:36:57;12.03;;;8.50;;
13485;SDS011;6815;59.336;17.998;2023-04-12T09:39:32;14.73;;;9.50;;
13485;SDS011;6815;59.336;17.998;2023-04-12T09:42:05;14.57;;;8.73;;
13485;SDS011;6815;59.336;17.998;2023-04-12T09:44:31;12.60;;;9.10;;
13485;SDS011;6815;59.336;17.998;2023-04-12T09:46:58;17.97;;;9.57;;
13485;SDS011;6815;59.336;17.998;2023-04-12T09:49:41;12.80;;;8.73;;
13485;SDS011;6815;59.336;17.998;2023-04-12T09:52:09;11.80;;;8.73;;
13485;SDS011;6815;59.336;17.998;2023-04-12T09:54:46;15.10;;;8.47;;
13485;SDS011;6815;59.336;17.998;2023-04-12T09:57:16;15.17;;;9.20;;
13485;SDS011;6815;59.336;17.998;2023-04-12T09:59:43;16.27;;;9.07;;
13485;SDS011;6815;59.336;17.998;2023-04-12T10:02:21;14.03;;;8.43;;
13485;SDS011;6815;59.336;17.998;2023-04-12T10:04:52;15.47;;;8.10;;
13485;SDS011;6815;59.336;17.998;2023-04-12T10:07:19;16.10;;;9.37;;
13485;SDS011;6815;59.336;17.998;2023-04-12T10:09:45;15.00;;;8.57;;
13485;SDS011;6815;59.336;17.998;2023-04-12T10:12:10;13.80;;;8.43;;
13485;SDS011;6815;59.336;17.998;2023-04-12T10:14:36;14.07;;;8.57;;
13485;SDS011;6815;59.336;17.998;2023-04-12T10:17:02;16.43;;;9.00;;
13485;SDS011;6815;59.336;17.998;2023-04-12T10:19:30;20.73;;;9.67;;
13485;SDS011;6815;59.336;17.998;2023-04-12T10:21:58;18.07;;;9.27;;
13485;SDS011;6815;59.336;17.998;2023-04-12T10:24:26;13.53;;;8.60;;
13485;SDS011;6815;59.336;17.998;2023-04-12T10:26:53;13.23;;;8.50;;
13485;SDS011;6815;59.336;17.998;2023-04-12T10:29:27;16.20;;;9.10;;
13485;SDS011;6815;59.336;17.998;2023-04-12T10:31:55;12.63;;;8.70;;
13485;SDS011;6815;59.336;17.998;2023-04-12T10:34:22;17.37;;;9.00;;
13485;SDS011;6815;59.336;17.998;2023-04-12T10:39:33;15.83;;;8.70;;
13485;SDS011;6815;59.336;17.998;2023-04-12T10:44:40;15.70;;;9.03;;
13485;SDS011;6815;59.336;17.998;2023-04-12T10:47:05;17.67;;;8.70;;
13485;SDS011;6815;59.336;17.998;2023-04-12T10:49:30;13.43;;;8.43;;
13485;SDS011;6815;59.336;17.998;2023-04-12T10:56:53;15.50;;;7.70;;
13485;SDS011;6815;59.336;17.998;2023-04-12T10:59:19;10.43;;;7.87;;
13485;SDS011;6815;59.336;17.998;2023-04-12T11:04:28;13.17;;;8.63;;
13485;SDS011;6815;59.336;17.998;2023-04-12T11:06:55;10.83;;;8.10;;
13485;SDS011;6815;59.336;17.998;2023-04-12T11:19:30;15.30;;;9.23;;
13485;SDS011;6815;59.336;17.998;2023-04-12T11:21:56;19.17;;;9.10;;
13485;SDS011;6815;59.336;17.998;2023-04-12T11:24:23;14.10;;;9.43;;
13485;SDS011;6815;59.336;17.998;2023-04-12T11:26:48;13.07;;;8.50;;
13485;SDS011;6815;59.336;17.998;2023-04-12T11:29:14;14.57;;;9.37;;
13485;SDS011;6815;59.336;17.998;2023-04-12T11:31:47;12.73;;;8.73;;
13485;SDS011;6815;59.336;17.998;2023-04-12T11:34:14;12.27;;;9.13;;
13485;SDS011;6815;59.336;17.998;2023-04-12T11:36:41;16.17;;;9.70;;
13485;SDS011;6815;59.336;17.998;2023-04-12T11:39:07;16.70;;;9.20;;
13485;SDS011;6815;59.336;17.998;2023-04-12T11:41:33;12.43;;;9.13;;
13485;SDS011;6815;59.336;17.998;2023-04-12T11:44:00;15.60;;;9.70;;
13485;SDS011;6815;59.336;17.998;2023-04-12T11:46:30;14.60;;;9.90;;
13485;SDS011;6815;59.336;17.998;2023-04-12T11:48:57;15.97;;;9.63;;
13485;SDS011;6815;59.336;17.998;2023-04-12T11:51:23;20.93;;;9.40;;
13485;SDS011;6815;59.336;17.998;2023-04-12T11:53:52;15.80;;;9.77;;
13485;SDS011;6815;59.336;17.998;2023-04-12T11:56:19;13.77;;;10.07;;
13485;SDS011;6815;59.336;17.998;2023-04-12T11:58:48;16.73;;;9.50;;
13485;SDS011;6815;59.336;17.998;2023-04-12T12:01:17;19.00;;;9.10;;
13485;SDS011;6815;59.336;17.998;2023-04-12T12:03:44;17.17;;;9.40;;
13485;SDS011;6815;59.336;17.998;2023-04-12T12:06:11;16.10;;;8.67;;
13485;SDS011;6815;59.336;17.998;2023-04-12T12:08:37;15.10;;;9.37;;
13485;SDS011;6815;59.336;17.998;2023-04-12T12:11:03;16.37;;;9.23;;
13485;SDS011;6815;59.336;17.998;2023-04-12T12:16:27;14.33;;;8.40;;
13485;SDS011;6815;59.336;17.998;2023-04-12T12:18:54;15.57;;;7.80;;
13485;SDS011;6815;59.336;17.998;2023-04-12T12:21:21;15.20;;;9.07;;
13485;SDS011;6815;59.336;17.998;2023-04-12T12:23:47;14.27;;;9.17;;
13485;SDS011;6815;59.336;17.998;2023-04-12T12:26:20;17.17;;;8.77;;
13485;SDS011;6815;59.336;17.998;2023-04-12T12:28:51;15.03;;;8.77;;
13485;SDS011;6815;59.336;17.998;2023-04-12T12:31:22;12.80;;;9.03;;
13485;SDS011;6815;59.336;17.998;2023-04-12T12:33:54;12.47;;;9.10;;
13485;SDS011;6815;59.336;17.998;2023-04-12T12:36:27;14.13;;;9.10;;
13485;SDS011;6815;59.336;17.998;2023-04-12T12:39:01;11.67;;;8.70;;
13485;SDS011;6815;59.336;17.998;2023-04-12T12:41:30;13.47;;;9.13;;
13485;SDS011;6815;59.336;17.998;2023-04-12T12:43:56;13.90;;;9.50;;
13485;SDS011;6815;59.336;17.998;2023-04-12T12:46:22;15.57;;;9.50;;
13485;SDS011;6815;59.336;17.998;2023-04-12T12:48:47;12.77;;;9.33;;
13485;SDS011;6815;59.336;17.998;2023-04-12T12:51:13;14.60;;;9.50;;
13485;SDS011;6815;59.336;17.998;2023-04-12T12:53:44;10.77;;;8.47;;
13485;SDS011;6815;59.336;17.998;2023-04-12T12:56:10;10.43;;;8.03;;
13485;SDS011;6815;59.336;17.998;2023-04-12T12:58:37;11.07;;;9.10;;
13485;SDS011;6815;59.336;17.998;2023-04-12T13:01:03;10.73;;;8.93;;
13485;SDS011;6815;59.336;17.998;2023-04-12T13:03:29;15.47;;;9.53;;
13485;SDS011;6815;59.336;17.998;2023-04-12T13:05:55;10.80;;;9.20;;
13485;SDS011;6815;59.336;17.998;2023-04-12T13:08:21;13.83;;;8.80;;
13485;SDS011;6815;59.336;17.998;2023-04-12T13:10:47;13.87;;;8.80;;
13485;SDS011;6815;59.336;17.998;2023-04-12T13:13:13;11.43;;;8.70;;
13485;SDS011;6815;59.336;17.998;2023-04-12T13:15:39;15.10;;;9.23;;
13485;SDS011;6815;59.336;17.998;2023-04-12T13:18:05;12.80;;;8.67;;
13485;SDS011;6815;59.336;17.998;2023-04-12T13:20:31;13.20;;;7.93;;
13485;SDS011;6815;59.336;17.998;2023-04-12T13:22:57;12.13;;;8.23;;
13485;SDS011;6815;59.336;17.998;2023-04-12T13:25:23;10.13;;;8.17;;
13485;SDS011;6815;59.336;17.998;2023-04-12T13:27:49;15.30;;;8.40;;
13485;SDS011;6815;59.336;17.998;2023-04-12T13:30:16;14.00;;;8.87;;
13485;SDS011;6815;59.336;17.998;2023-04-12T13:32:42;15.40;;;9.40;;
13485;SDS011;6815;59.336;17.998;2023-04-12T13:35:08;11.83;;;8.53;;
13485;SDS011;6815;59.336;17.998;2023-04-12T13:37:34;15.73;;;9.13;;
13485;SDS011;6815;59.336;17.998;2023-04-12T13:40:00;13.20;;;8.80;;
13485;SDS011;6815;59.336;17.998;2023-04-12T13:42:26;13.20;;;8.53;;
13485;SDS011;6815;59.336;17.998;2023-04-12T13:44:52;10.83;;;8.60;;
13485;SDS011;6815;59.336;17.998;2023-04-12T13:47:17;12.17;;;9.03;;
13485;SDS011;6815;59.336;17.998;2023-04-12T13:49:43;17.60;;;9.03;;
13485;SDS011;6815;59.336;17.998;2023-04-12T13:52:08;10.00;;;8.97;;
13485;SDS011;6815;59.336;17.998;2023-04-12T13:54:34;13.77;;;9.53;;
13485;SDS011;6815;59.336;17.998;2023-04-12T13:57:01;14.43;;;9.43;;
13485;SDS011;6815;59.336;17.998;2023-04-12T13:59:28;13.03;;;8.87;;
13485;SDS011;6815;59.336;17.998;2023-04-12T14:01:53;13.77;;;8.97;;
13485;SDS011;6815;59.336;17.998;2023-04-12T14:04:21;14.20;;;9.43;;
13485;SDS011;6815;59.336;17.998;2023-04-12T14:06:46;15.17;;;9.27;;
13485;SDS011;6815;59.336;17.998;2023-04-12T14:12:07;16.87;;;8.63;;
13485;SDS011;6815;59.336;17.998;2023-04-12T14:14:32;10.63;;;9.17;;
13485;SDS011;6815;59.336;17.998;2023-04-12T14:16:58;15.53;;;9.40;;
13485;SDS011;6815;59.336;17.998;2023-04-12T14:19:25;15.83;;;9.70;;
13485;SDS011;6815;59.336;17.998;2023-04-12T14:21:51;16.10;;;9.90;;
13485;SDS011;6815;59.336;17.998;2023-04-12T14:24:17;21.57;;;9.77;;
13485;SDS011;6815;59.336;17.998;2023-04-12T14:26:43;15.67;;;9.10;;
13485;SDS011;6815;59.336;17.998;2023-04-12T14:29:09;16.20;;;9.43;;
13485;SDS011;6815;59.336;17.998;2023-04-12T14:31:35;14.27;;;9.53;;
13485;SDS011;6815;59.336;17.998;2023-04-12T14:34:01;11.73;;;9.20;;
13485;SDS011;6815;59.336;17.998;2023-04-12T14:36:27;16.63;;;9.70;;
13485;SDS011;6815;59.336;17.998;2023-04-12T14:38:53;15.00;;;10.47;;
13485;SDS011;6815;59.336;17.998;2023-04-12T14:41:19;17.90;;;10.90;;
13485;SDS011;6815;59.336;17.998;2023-04-12T14:43:44;15.83;;;10.03;;
13485;SDS011;6815;59.336;17.998;2023-04-12T14:46:10;22.70;;;11.07;;
13485;SDS011;6815;59.336;17.998;2023-04-12T14:48:36;16.30;;;11.30;;
13485;SDS011;6815;59.336;17.998;2023-04-12T14:51:03;14.30;;;10.77;;
13485;SDS011;6815;59.336;17.998;2023-04-12T14:53:31;20.00;;;10.87;;
13485;SDS011;6815;59.336;17.998;2023-04-12T14:55:57;14.13;;;10.13;;
13485;SDS011;6815;59.336;17.998;2023-04-12T14:58:24;15.53;;;11.50;;
13485;SDS011;6815;59.336;17.998;2023-04-12T15:00:53;14.77;;;11.83;;
13485;SDS011;6815;59.336;17.998;2023-04-12T15:03:19;16.83;;;11.57;;
13485;SDS011;6815;59.336;17.998;2023-04-12T15:05:45;19.93;;;11.10;;
13485;SDS011;6815;59.336;17.998;2023-04-12T15:08:11;19.97;;;11.93;;
13485;SDS011;6815;59.336;17.998;2023-04-12T15:10:36;18.47;;;11.00;;
13485;SDS011;6815;59.336;17.998;2023-04-12T15:13:01;20.20;;;11.20;;